sensor_id;sensor_type;location;lat;lon;timestamp;P1;durP1;ratioP1;P2;durP2;ratioP2
71383;SDS011;67558;52.166;5.004;2023-05-14T00:00:23;27.85;;;25.65;;
71383;SDS011;67558;52.166;5.004;2023-05-14T00:02:48;27.75;;;25.83;;
71383;SDS011;67558;52.166;5.004;2023-05-14T00:05:13;31.15;;;28.83;;
71383;SDS011;67558;52.166;5.004;2023-05-14T00:07:39;28.02;;;26.13;;
71383;SDS011;67558;52.166;5.004;2023-05-14T00:10:05;30.40;;;27.90;;
71383;SDS011;67558;52.166;5.004;2023-05-14T00:12:30;29.33;;;27.48;;
71383;SDS011;67558;52.166;5.004;2023-05-14T00:14:56;28.60;;;26.45;;
71383;SDS011;67558;52.166;5.004;2023-05-14T00:17:21;28.52;;;26.20;;
71383;SDS011;67558;52.166;5.004;2023-05-14T00:19:47;26.92;;;25.17;;
71383;SDS011;67558;52.166;5.004;2023-05-14T00:22:12;28.33;;;26.42;;
71383;SDS011;67558;52.166;5.004;2023-05-14T00:24:38;28.00;;;25.80;;
71383;SDS011;67558;52.166;5.004;2023-05-14T00:27:03;31.52;;;29.38;;
71383;SDS011;67558;52.166;5.004;2023-05-14T00:29:29;27.33;;;25.42;;
71383;SDS011;67558;52.166;5.004;2023-05-14T00:31:54;30.35;;;28.55;;
71383;SDS011;67558;52.166;5.004;2023-05-14T00:34:20;28.48;;;26.60;;
71383;SDS011;67558;52.166;5.004;2023-05-14T00:36:45;26.58;;;24.50;;
71383;SDS011;67558;52.166;5.004;2023-05-14T00:39:10;30.20;;;27.98;;
71383;SDS011;67558;52.166;5.004;2023-05-14T00:41:36;44.45;;;42.03;;
71383;SDS011;67558;52.166;5.004;2023-05-14T00:44:02;27.17;;;25.38;;
71383;SDS011;67558;52.166;5.004;2023-05-14T00:46:28;28.67;;;26.63;;
71383;SDS011;67558;52.166;5.004;2023-05-14T00:48:55;26.58;;;24.63;;
71383;SDS011;67558;52.166;5.004;2023-05-14T00:51:22;27.60;;;25.45;;
71383;SDS011;67558;52.166;5.004;2023-05-14T00:53:47;27.48;;;25.17;;
71383;SDS011;67558;52.166;5.004;2023-05-14T00:56:14;28.35;;;26.20;;
71383;SDS011;67558;52.166;5.004;2023-05-14T00:58:39;28.90;;;26.55;;
71383;SDS011;67558;52.166;5.004;2023-05-14T01:01:05;28.65;;;26.65;;
71383;SDS011;67558;52.166;5.004;2023-05-14T01:03:30;27.80;;;25.70;;
71383;SDS011;67558;52.166;5.004;2023-05-14T01:06:02;26.77;;;24.92;;
71383;SDS011;67558;52.166;5.004;2023-05-14T01:11:35;24.33;;;22.73;;
71383;SDS011;67558;52.166;5.004;2023-05-14T01:14:15;28.92;;;26.83;;
71383;SDS011;67558;52.166;5.004;2023-05-14T01:16:49;26.23;;;24.23;;
71383;SDS011;67558;52.166;5.004;2023-05-14T01:19:25;28.08;;;25.83;;
71383;SDS011;67558;52.166;5.004;2023-05-14T01:21:57;25.75;;;23.75;;
71383;SDS011;67558;52.166;5.004;2023-05-14T01:24:22;25.27;;;23.40;;
71383;SDS011;67558;52.166;5.004;2023-05-14T01:26:48;27.92;;;25.73;;
71383;SDS011;67558;52.166;5.004;2023-05-14T01:29:21;28.58;;;26.67;;
71383;SDS011;67558;52.166;5.004;2023-05-14T01:31:48;27.92;;;25.88;;
71383;SDS011;67558;52.166;5.004;2023-05-14T01:36:46;24.50;;;22.83;;
71383;SDS011;67558;52.166;5.004;2023-05-14T01:39:14;27.05;;;25.23;;
71383;SDS011;67558;52.166;5.004;2023-05-14T01:41:39;28.13;;;26.27;;
71383;SDS011;67558;52.166;5.004;2023-05-14T01:44:10;24.80;;;22.90;;
71383;SDS011;67558;52.166;5.004;2023-05-14T01:46:37;24.73;;;22.70;;
71383;SDS011;67558;52.166;5.004;2023-05-14T01:49:02;25.55;;;23.75;;
71383;SDS011;67558;52.166;5.004;2023-05-14T01:51:29;24.27;;;22.27;;
71383;SDS011;67558;52.166;5.004;2023-05-14T01:53:55;25.42;;;23.58;;
71383;SDS011;67558;52.166;5.004;2023-05-14T01:56:21;30.63;;;28.25;;
71383;SDS011;67558;52.166;5.004;2023-05-14T01:58:47;25.90;;;23.90;;
71383;SDS011;67558;52.166;5.004;2023-05-14T02:01:13;25.60;;;23.60;;
71383;SDS011;67558;52.166;5.004;2023-05-14T02:03:40;26.77;;;24.95;;
71383;SDS011;67558;52.166;5.004;2023-05-14T02:06:06;29.02;;;26.65;;
71383;SDS011;67558;52.166;5.004;2023-05-14T02:08:31;26.58;;;25.00;;
71383;SDS011;67558;52.166;5.004;2023-05-14T02:10:58;28.52;;;26.90;;
71383;SDS011;67558;52.166;5.004;2023-05-14T02:13:24;25.02;;;23.23;;
71383;SDS011;67558;52.166;5.004;2023-05-14T02:15:50;24.60;;;22.35;;
71383;SDS011;67558;52.166;5.004;2023-05-14T02:18:16;24.58;;;22.73;;
71383;SDS011;67558;52.166;5.004;2023-05-14T02:20:43;28.65;;;26.45;;
71383;SDS011;67558;52.166;5.004;2023-05-14T02:23:08;28.67;;;26.30;;
71383;SDS011;67558;52.166;5.004;2023-05-14T02:25:34;26.08;;;24.27;;
71383;SDS011;67558;52.166;5.004;2023-05-14T02:28:00;30.85;;;28.17;;
71383;SDS011;67558;52.166;5.004;2023-05-14T02:30:26;25.25;;;23.35;;
71383;SDS011;67558;52.166;5.004;2023-05-14T02:32:53;26.63;;;24.85;;
71383;SDS011;67558;52.166;5.004;2023-05-14T02:35:19;25.75;;;23.60;;
71383;SDS011;67558;52.166;5.004;2023-05-14T02:37:45;31.92;;;29.63;;
71383;SDS011;67558;52.166;5.004;2023-05-14T02:40:11;23.05;;;21.23;;
71383;SDS011;67558;52.166;5.004;2023-05-14T02:42:37;27.77;;;25.58;;
71383;SDS011;67558;52.166;5.004;2023-05-14T02:45:05;25.48;;;23.75;;
71383;SDS011;67558;52.166;5.004;2023-05-14T02:47:31;27.13;;;25.02;;
71383;SDS011;67558;52.166;5.004;2023-05-14T02:49:57;24.85;;;22.90;;
71383;SDS011;67558;52.166;5.004;2023-05-14T02:52:23;25.42;;;23.40;;
71383;SDS011;67558;52.166;5.004;2023-05-14T02:54:48;30.70;;;28.15;;
71383;SDS011;67558;52.166;5.004;2023-05-14T02:57:13;26.88;;;24.60;;
71383;SDS011;67558;52.166;5.004;2023-05-14T02:59:39;28.92;;;26.65;;
71383;SDS011;67558;52.166;5.004;2023-05-14T03:02:04;22.60;;;20.73;;
71383;SDS011;67558;52.166;5.004;2023-05-14T03:04:30;27.02;;;24.98;;
71383;SDS011;67558;52.166;5.004;2023-05-14T03:06:55;26.73;;;24.63;;
71383;SDS011;67558;52.166;5.004;2023-05-14T03:09:21;25.95;;;24.05;;
71383;SDS011;67558;52.166;5.004;2023-05-14T03:11:48;26.85;;;24.63;;
71383;SDS011;67558;52.166;5.004;2023-05-14T03:14:14;28.50;;;26.10;;
71383;SDS011;67558;52.166;5.004;2023-05-14T03:16:41;26.08;;;23.83;;
71383;SDS011;67558;52.166;5.004;2023-05-14T03:19:07;25.90;;;23.70;;
71383;SDS011;67558;52.166;5.004;2023-05-14T03:21:35;24.15;;;22.33;;
71383;SDS011;67558;52.166;5.004;2023-05-14T03:24:02;26.23;;;24.10;;
71383;SDS011;67558;52.166;5.004;2023-05-14T03:26:27;31.83;;;29.38;;
71383;SDS011;67558;52.166;5.004;2023-05-14T03:28:53;26.10;;;24.23;;
71383;SDS011;67558;52.166;5.004;2023-05-14T03:31:18;26.50;;;24.10;;
71383;SDS011;67558;52.166;5.004;2023-05-14T03:33:44;30.92;;;28.73;;
71383;SDS011;67558;52.166;5.004;2023-05-14T03:36:10;25.48;;;23.58;;
71383;SDS011;67558;52.166;5.004;2023-05-14T03:38:36;27.98;;;26.13;;
71383;SDS011;67558;52.166;5.004;2023-05-14T03:41:02;28.77;;;26.83;;
71383;SDS011;67558;52.166;5.004;2023-05-14T03:43:28;25.70;;;23.42;;
71383;SDS011;67558;52.166;5.004;2023-05-14T03:45:54;26.15;;;24.23;;
71383;SDS011;67558;52.166;5.004;2023-05-14T03:48:20;26.83;;;24.92;;
71383;SDS011;67558;52.166;5.004;2023-05-14T03:50:46;26.17;;;24.17;;
71383;SDS011;67558;52.166;5.004;2023-05-14T03:53:12;25.42;;;23.63;;
71383;SDS011;67558;52.166;5.004;2023-05-14T03:55:38;25.65;;;23.77;;
71383;SDS011;67558;52.166;5.004;2023-05-14T03:58:05;26.70;;;24.95;;
71383;SDS011;67558;52.166;5.004;2023-05-14T04:00:34;24.83;;;22.90;;
71383;SDS011;67558;52.166;5.004;2023-05-14T04:03:00;27.50;;;25.27;;
71383;SDS011;67558;52.166;5.004;2023-05-14T04:05:26;27.83;;;25.73;;
71383;SDS011;67558;52.166;5.004;2023-05-14T04:07:52;27.60;;;25.58;;
71383;SDS011;67558;52.166;5.004;2023-05-14T04:10:18;28.67;;;26.38;;
71383;SDS011;67558;52.166;5.004;2023-05-14T04:12:43;22.92;;;21.13;;
71383;SDS011;67558;52.166;5.004;2023-05-14T04:15:10;24.85;;;23.08;;
71383;SDS011;67558;52.166;5.004;2023-05-14T04:17:35;26.80;;;24.25;;
71383;SDS011;67558;52.166;5.004;2023-05-14T04:20:02;24.45;;;22.70;;
71383;SDS011;67558;52.166;5.004;2023-05-14T04:22:28;26.98;;;25.00;;
71383;SDS011;67558;52.166;5.004;2023-05-14T04:24:56;26.58;;;24.65;;
71383;SDS011;67558;52.166;5.004;2023-05-14T04:27:22;23.88;;;22.10;;
71383;SDS011;67558;52.166;5.004;2023-05-14T04:29:48;25.08;;;23.17;;
71383;SDS011;67558;52.166;5.004;2023-05-14T04:32:15;29.20;;;26.90;;
71383;SDS011;67558;52.166;5.004;2023-05-14T04:34:41;24.77;;;22.73;;
71383;SDS011;67558;52.166;5.004;2023-05-14T04:37:07;28.98;;;27.02;;
71383;SDS011;67558;52.166;5.004;2023-05-14T04:39:32;25.88;;;23.90;;
71383;SDS011;67558;52.166;5.004;2023-05-14T04:41:58;25.55;;;23.40;;
71383;SDS011;67558;52.166;5.004;2023-05-14T04:44:23;24.63;;;22.75;;
71383;SDS011;67558;52.166;5.004;2023-05-14T04:46:48;24.33;;;22.35;;
71383;SDS011;67558;52.166;5.004;2023-05-14T04:49:14;24.70;;;22.55;;
71383;SDS011;67558;52.166;5.004;2023-05-14T04:51:39;30.45;;;28.65;;
71383;SDS011;67558;52.166;5.004;2023-05-14T04:54:05;27.02;;;25.15;;
71383;SDS011;67558;52.166;5.004;2023-05-14T04:56:30;26.55;;;24.55;;
71383;SDS011;67558;52.166;5.004;2023-05-14T04:58:55;25.70;;;23.88;;
71383;SDS011;67558;52.166;5.004;2023-05-14T05:01:21;26.55;;;24.35;;
71383;SDS011;67558;52.166;5.004;2023-05-14T05:03:47;26.00;;;24.10;;
71383;SDS011;67558;52.166;5.004;2023-05-14T05:06:12;26.90;;;25.20;;
71383;SDS011;67558;52.166;5.004;2023-05-14T05:08:38;24.15;;;22.65;;
71383;SDS011;67558;52.166;5.004;2023-05-14T05:11:03;26.92;;;24.88;;
71383;SDS011;67558;52.166;5.004;2023-05-14T05:13:29;26.67;;;24.63;;
71383;SDS011;67558;52.166;5.004;2023-05-14T05:15:56;30.58;;;28.58;;
71383;SDS011;67558;52.166;5.004;2023-05-14T05:18:21;27.92;;;26.17;;
71383;SDS011;67558;52.166;5.004;2023-05-14T05:20:46;24.38;;;22.52;;
71383;SDS011;67558;52.166;5.004;2023-05-14T05:23:12;27.60;;;25.85;;
71383;SDS011;67558;52.166;5.004;2023-05-14T05:25:37;30.80;;;28.65;;
71383;SDS011;67558;52.166;5.004;2023-05-14T05:28:03;25.65;;;23.83;;
71383;SDS011;67558;52.166;5.004;2023-05-14T05:30:29;26.38;;;24.48;;
71383;SDS011;67558;52.166;5.004;2023-05-14T05:32:55;27.42;;;25.55;;
71383;SDS011;67558;52.166;5.004;2023-05-14T05:35:21;24.33;;;22.55;;
71383;SDS011;67558;52.166;5.004;2023-05-14T05:37:47;42.65;;;40.28;;
71383;SDS011;67558;52.166;5.004;2023-05-14T05:40:13;31.80;;;30.00;;
71383;SDS011;67558;52.166;5.004;2023-05-14T05:42:40;27.00;;;25.00;;
71383;SDS011;67558;52.166;5.004;2023-05-14T05:45:07;28.50;;;26.48;;
71383;SDS011;67558;52.166;5.004;2023-05-14T05:47:33;27.00;;;25.02;;
71383;SDS011;67558;52.166;5.004;2023-05-14T05:49:58;25.67;;;23.60;;
71383;SDS011;67558;52.166;5.004;2023-05-14T05:52:24;26.08;;;24.13;;
71383;SDS011;67558;52.166;5.004;2023-05-14T05:54:50;27.92;;;25.35;;
71383;SDS011;67558;52.166;5.004;2023-05-14T05:57:16;25.63;;;23.77;;
71383;SDS011;67558;52.166;5.004;2023-05-14T05:59:42;25.77;;;24.00;;
71383;SDS011;67558;52.166;5.004;2023-05-14T06:02:07;27.00;;;24.83;;
71383;SDS011;67558;52.166;5.004;2023-05-14T06:04:33;25.55;;;23.77;;
71383;SDS011;67558;52.166;5.004;2023-05-14T06:06:59;28.45;;;26.65;;
71383;SDS011;67558;52.166;5.004;2023-05-14T06:09:25;26.52;;;24.92;;
71383;SDS011;67558;52.166;5.004;2023-05-14T06:11:51;32.92;;;31.02;;
71383;SDS011;67558;52.166;5.004;2023-05-14T06:14:17;41.92;;;39.58;;
71383;SDS011;67558;52.166;5.004;2023-05-14T06:16:43;26.05;;;24.10;;
71383;SDS011;67558;52.166;5.004;2023-05-14T06:19:08;26.73;;;24.80;;
71383;SDS011;67558;52.166;5.004;2023-05-14T06:21:34;28.60;;;26.63;;
71383;SDS011;67558;52.166;5.004;2023-05-14T06:23:59;30.45;;;28.60;;
71383;SDS011;67558;52.166;5.004;2023-05-14T06:26:24;27.15;;;24.60;;
71383;SDS011;67558;52.166;5.004;2023-05-14T06:28:50;26.85;;;25.13;;
71383;SDS011;67558;52.166;5.004;2023-05-14T06:31:16;28.70;;;26.60;;
71383;SDS011;67558;52.166;5.004;2023-05-14T06:33:42;26.42;;;24.40;;
71383;SDS011;67558;52.166;5.004;2023-05-14T06:36:07;28.75;;;26.75;;
71383;SDS011;67558;52.166;5.004;2023-05-14T06:38:33;28.63;;;26.65;;
71383;SDS011;67558;52.166;5.004;2023-05-14T06:40:58;28.10;;;26.20;;
71383;SDS011;67558;52.166;5.004;2023-05-14T06:43:24;27.95;;;25.95;;
71383;SDS011;67558;52.166;5.004;2023-05-14T06:45:50;31.15;;;29.20;;
71383;SDS011;67558;52.166;5.004;2023-05-14T06:48:16;30.70;;;28.60;;
71383;SDS011;67558;52.166;5.004;2023-05-14T06:50:46;25.85;;;24.15;;
71383;SDS011;67558;52.166;5.004;2023-05-14T06:53:13;30.88;;;28.77;;
71383;SDS011;67558;52.166;5.004;2023-05-14T06:55:39;28.02;;;26.17;;
71383;SDS011;67558;52.166;5.004;2023-05-14T06:58:06;26.08;;;24.38;;
71383;SDS011;67558;52.166;5.004;2023-05-14T07:00:32;30.23;;;28.23;;
71383;SDS011;67558;52.166;5.004;2023-05-14T07:02:58;32.75;;;30.85;;
71383;SDS011;67558;52.166;5.004;2023-05-14T07:05:23;32.38;;;30.15;;
71383;SDS011;67558;52.166;5.004;2023-05-14T07:07:49;27.55;;;25.58;;
71383;SDS011;67558;52.166;5.004;2023-05-14T07:10:15;30.23;;;28.40;;
71383;SDS011;67558;52.166;5.004;2023-05-14T07:12:41;30.77;;;29.13;;
71383;SDS011;67558;52.166;5.004;2023-05-14T07:15:08;30.35;;;28.65;;
71383;SDS011;67558;52.166;5.004;2023-05-14T07:17:33;34.33;;;32.33;;
71383;SDS011;67558;52.166;5.004;2023-05-14T07:20:00;33.47;;;31.77;;
71383;SDS011;67558;52.166;5.004;2023-05-14T07:22:26;35.13;;;33.40;;
71383;SDS011;67558;52.166;5.004;2023-05-14T07:24:52;32.83;;;31.02;;
71383;SDS011;67558;52.166;5.004;2023-05-14T07:27:18;35.20;;;33.53;;
71383;SDS011;67558;52.166;5.004;2023-05-14T07:29:44;31.80;;;29.95;;
71383;SDS011;67558;52.166;5.004;2023-05-14T07:32:09;34.28;;;32.72;;
71383;SDS011;67558;52.166;5.004;2023-05-14T07:34:35;31.73;;;30.13;;
71383;SDS011;67558;52.166;5.004;2023-05-14T07:37:00;33.45;;;31.75;;
71383;SDS011;67558;52.166;5.004;2023-05-14T07:39:26;34.50;;;33.10;;
71383;SDS011;67558;52.166;5.004;2023-05-14T07:41:52;32.63;;;31.05;;
71383;SDS011;67558;52.166;5.004;2023-05-14T07:44:18;31.95;;;30.55;;
71383;SDS011;67558;52.166;5.004;2023-05-14T07:46:44;32.40;;;30.90;;
71383;SDS011;67558;52.166;5.004;2023-05-14T07:49:10;32.75;;;31.02;;
71383;SDS011;67558;52.166;5.004;2023-05-14T07:51:35;34.20;;;32.38;;
71383;SDS011;67558;52.166;5.004;2023-05-14T07:54:00;32.38;;;30.77;;
71383;SDS011;67558;52.166;5.004;2023-05-14T07:56:26;31.20;;;29.98;;
71383;SDS011;67558;52.166;5.004;2023-05-14T07:58:51;32.63;;;31.10;;
71383;SDS011;67558;52.166;5.004;2023-05-14T08:01:17;31.05;;;29.55;;
71383;SDS011;67558;52.166;5.004;2023-05-14T08:03:42;31.65;;;30.15;;
71383;SDS011;67558;52.166;5.004;2023-05-14T08:06:07;29.65;;;28.17;;
71383;SDS011;67558;52.166;5.004;2023-05-14T08:08:33;32.55;;;31.15;;
71383;SDS011;67558;52.166;5.004;2023-05-14T08:10:58;32.78;;;31.35;;
71383;SDS011;67558;52.166;5.004;2023-05-14T08:13:23;37.22;;;35.50;;
71383;SDS011;67558;52.166;5.004;2023-05-14T08:15:49;31.75;;;30.27;;
71383;SDS011;67558;52.166;5.004;2023-05-14T08:18:15;33.15;;;31.35;;
71383;SDS011;67558;52.166;5.004;2023-05-14T08:20:40;38.38;;;36.83;;
71383;SDS011;67558;52.166;5.004;2023-05-14T08:23:06;39.30;;;37.55;;
71383;SDS011;67558;52.166;5.004;2023-05-14T08:25:33;34.55;;;32.92;;
71383;SDS011;67558;52.166;5.004;2023-05-14T08:27:58;34.30;;;32.78;;
71383;SDS011;67558;52.166;5.004;2023-05-14T08:30:25;36.25;;;34.47;;
71383;SDS011;67558;52.166;5.004;2023-05-14T08:32:50;35.22;;;33.83;;
71383;SDS011;67558;52.166;5.004;2023-05-14T08:35:16;34.28;;;32.42;;
71383;SDS011;67558;52.166;5.004;2023-05-14T08:37:42;40.15;;;38.40;;
71383;SDS011;67558;52.166;5.004;2023-05-14T08:40:09;33.95;;;32.20;;
71383;SDS011;67558;52.166;5.004;2023-05-14T08:42:36;35.10;;;33.25;;
71383;SDS011;67558;52.166;5.004;2023-05-14T08:45:04;32.63;;;31.23;;
71383;SDS011;67558;52.166;5.004;2023-05-14T08:47:35;30.70;;;29.33;;
71383;SDS011;67558;52.166;5.004;2023-05-14T08:50:02;34.95;;;33.28;;
71383;SDS011;67558;52.166;5.004;2023-05-14T08:52:30;34.42;;;32.92;;
71383;SDS011;67558;52.166;5.004;2023-05-14T08:55:00;37.42;;;35.50;;
71383;SDS011;67558;52.166;5.004;2023-05-14T08:57:29;36.80;;;34.95;;
71383;SDS011;67558;52.166;5.004;2023-05-14T08:59:55;36.55;;;34.45;;
71383;SDS011;67558;52.166;5.004;2023-05-14T09:02:22;38.22;;;36.33;;
71383;SDS011;67558;52.166;5.004;2023-05-14T09:04:56;33.63;;;32.20;;
71383;SDS011;67558;52.166;5.004;2023-05-14T09:07:28;39.03;;;37.17;;
71383;SDS011;67558;52.166;5.004;2023-05-14T09:09:54;34.58;;;32.95;;
71383;SDS011;67558;52.166;5.004;2023-05-14T09:12:20;35.55;;;33.70;;
71383;SDS011;67558;52.166;5.004;2023-05-14T09:14:46;38.33;;;36.55;;
71383;SDS011;67558;52.166;5.004;2023-05-14T09:17:12;34.78;;;33.08;;
71383;SDS011;67558;52.166;5.004;2023-05-14T09:19:38;31.58;;;29.75;;
71383;SDS011;67558;52.166;5.004;2023-05-14T09:22:07;43.60;;;41.83;;
71383;SDS011;67558;52.166;5.004;2023-05-14T09:24:33;43.10;;;41.10;;
71383;SDS011;67558;52.166;5.004;2023-05-14T09:27:00;37.00;;;35.15;;
71383;SDS011;67558;52.166;5.004;2023-05-14T09:29:28;35.38;;;33.78;;
71383;SDS011;67558;52.166;5.004;2023-05-14T09:31:55;33.45;;;32.13;;
71383;SDS011;67558;52.166;5.004;2023-05-14T09:36:55;33.90;;;32.40;;
71383;SDS011;67558;52.166;5.004;2023-05-14T09:39:24;36.50;;;34.75;;
71383;SDS011;67558;52.166;5.004;2023-05-14T09:41:52;34.10;;;32.47;;
71383;SDS011;67558;52.166;5.004;2023-05-14T09:44:21;31.42;;;30.00;;
71383;SDS011;67558;52.166;5.004;2023-05-14T09:46:49;34.88;;;33.25;;
71383;SDS011;67558;52.166;5.004;2023-05-14T09:49:17;34.17;;;32.67;;
71383;SDS011;67558;52.166;5.004;2023-05-14T09:51:43;32.97;;;31.02;;
71383;SDS011;67558;52.166;5.004;2023-05-14T09:54:11;36.03;;;34.45;;
71383;SDS011;67558;52.166;5.004;2023-05-14T09:56:37;36.45;;;34.10;;
71383;SDS011;67558;52.166;5.004;2023-05-14T09:59:06;35.85;;;34.13;;
71383;SDS011;67558;52.166;5.004;2023-05-14T10:01:32;34.72;;;33.10;;
71383;SDS011;67558;52.166;5.004;2023-05-14T10:03:58;35.55;;;33.78;;
71383;SDS011;67558;52.166;5.004;2023-05-14T10:06:29;35.53;;;33.95;;
71383;SDS011;67558;52.166;5.004;2023-05-14T10:09:01;33.13;;;31.45;;
71383;SDS011;67558;52.166;5.004;2023-05-14T10:11:30;33.33;;;31.73;;
71383;SDS011;67558;52.166;5.004;2023-05-14T10:14:07;36.00;;;33.92;;
71383;SDS011;67558;52.166;5.004;2023-05-14T10:16:50;35.70;;;33.90;;
71383;SDS011;67558;52.166;5.004;2023-05-14T10:19:22;35.45;;;33.78;;
71383;SDS011;67558;52.166;5.004;2023-05-14T10:21:55;34.25;;;32.70;;
71383;SDS011;67558;52.166;5.004;2023-05-14T10:24:23;36.67;;;34.95;;
71383;SDS011;67558;52.166;5.004;2023-05-14T10:26:49;40.60;;;38.95;;
71383;SDS011;67558;52.166;5.004;2023-05-14T10:29:15;35.35;;;33.85;;
71383;SDS011;67558;52.166;5.004;2023-05-14T10:31:51;33.90;;;32.38;;
71383;SDS011;67558;52.166;5.004;2023-05-14T10:34:35;33.35;;;31.92;;
71383;SDS011;67558;52.166;5.004;2023-05-14T10:39:52;37.20;;;35.55;;
71383;SDS011;67558;52.166;5.004;2023-05-14T10:42:25;35.75;;;34.10;;
71383;SDS011;67558;52.166;5.004;2023-05-14T10:44:56;37.53;;;35.65;;
71383;SDS011;67558;52.166;5.004;2023-05-14T10:47:25;38.92;;;36.95;;
71383;SDS011;67558;52.166;5.004;2023-05-14T10:49:53;35.55;;;33.55;;
71383;SDS011;67558;52.166;5.004;2023-05-14T10:52:22;36.17;;;34.42;;
71383;SDS011;67558;52.166;5.004;2023-05-14T10:54:49;38.50;;;36.95;;
71383;SDS011;67558;52.166;5.004;2023-05-14T10:57:20;38.00;;;36.45;;
71383;SDS011;67558;52.166;5.004;2023-05-14T10:59:48;36.08;;;34.47;;
71383;SDS011;67558;52.166;5.004;2023-05-14T11:02:18;33.83;;;32.38;;
71383;SDS011;67558;52.166;5.004;2023-05-14T11:07:42;38.85;;;37.42;;
71383;SDS011;67558;52.166;5.004;2023-05-14T11:10:11;31.52;;;30.17;;
71383;SDS011;67558;52.166;5.004;2023-05-14T11:12:38;40.83;;;39.10;;
71383;SDS011;67558;52.166;5.004;2023-05-14T11:15:11;37.85;;;36.05;;
71383;SDS011;67558;52.166;5.004;2023-05-14T11:17:39;36.25;;;34.63;;
71383;SDS011;67558;52.166;5.004;2023-05-14T11:20:06;36.90;;;35.00;;
71383;SDS011;67558;52.166;5.004;2023-05-14T11:22:35;37.13;;;35.63;;
71383;SDS011;67558;52.166;5.004;2023-05-14T11:25:03;38.22;;;36.58;;
71383;SDS011;67558;52.166;5.004;2023-05-14T11:27:32;36.88;;;35.15;;
71383;SDS011;67558;52.166;5.004;2023-05-14T11:29:58;34.45;;;32.85;;
71383;SDS011;67558;52.166;5.004;2023-05-14T11:32:25;35.97;;;34.17;;
71383;SDS011;67558;52.166;5.004;2023-05-14T11:34:52;33.33;;;32.03;;
71383;SDS011;67558;52.166;5.004;2023-05-14T11:37:17;37.45;;;35.72;;
71383;SDS011;67558;52.166;5.004;2023-05-14T11:39:50;41.03;;;39.20;;
71383;SDS011;67558;52.166;5.004;2023-05-14T11:42:18;37.60;;;36.25;;
71383;SDS011;67558;52.166;5.004;2023-05-14T11:44:51;38.85;;;36.80;;
71383;SDS011;67558;52.166;5.004;2023-05-14T11:47:20;38.60;;;37.03;;
71383;SDS011;67558;52.166;5.004;2023-05-14T11:49:48;35.60;;;34.00;;
71383;SDS011;67558;52.166;5.004;2023-05-14T11:52:14;39.13;;;37.35;;
71383;SDS011;67558;52.166;5.004;2023-05-14T11:54:43;38.45;;;36.90;;
71383;SDS011;67558;52.166;5.004;2023-05-14T11:57:16;36.17;;;34.35;;
71383;SDS011;67558;52.166;5.004;2023-05-14T11:59:59;35.30;;;33.83;;
71383;SDS011;67558;52.166;5.004;2023-05-14T12:02:25;34.65;;;33.35;;
71383;SDS011;67558;52.166;5.004;2023-05-14T12:04:54;34.50;;;33.08;;
71383;SDS011;67558;52.166;5.004;2023-05-14T12:07:20;36.72;;;35.30;;
71383;SDS011;67558;52.166;5.004;2023-05-14T12:09:46;37.00;;;35.15;;
71383;SDS011;67558;52.166;5.004;2023-05-14T12:12:14;39.83;;;38.35;;
71383;SDS011;67558;52.166;5.004;2023-05-14T12:14:42;38.17;;;36.88;;
71383;SDS011;67558;52.166;5.004;2023-05-14T12:17:13;41.22;;;39.72;;
71383;SDS011;67558;52.166;5.004;2023-05-14T12:19:43;37.22;;;35.80;;
71383;SDS011;67558;52.166;5.004;2023-05-14T12:22:10;38.88;;;37.33;;
71383;SDS011;67558;52.166;5.004;2023-05-14T12:24:37;35.88;;;34.47;;
71383;SDS011;67558;52.166;5.004;2023-05-14T12:27:03;44.78;;;43.17;;
71383;SDS011;67558;52.166;5.004;2023-05-14T12:29:29;37.75;;;36.17;;
71383;SDS011;67558;52.166;5.004;2023-05-14T12:31:56;39.03;;;37.50;;
71383;SDS011;67558;52.166;5.004;2023-05-14T12:34:23;47.58;;;45.60;;
71383;SDS011;67558;52.166;5.004;2023-05-14T12:36:48;38.78;;;36.80;;
71383;SDS011;67558;52.166;5.004;2023-05-14T12:39:14;36.70;;;35.17;;
71383;SDS011;67558;52.166;5.004;2023-05-14T12:41:39;42.05;;;40.25;;
71383;SDS011;67558;52.166;5.004;2023-05-14T12:44:05;41.03;;;39.50;;
71383;SDS011;67558;52.166;5.004;2023-05-14T12:46:31;39.97;;;38.20;;
71383;SDS011;67558;52.166;5.004;2023-05-14T12:48:58;43.42;;;41.83;;
71383;SDS011;67558;52.166;5.004;2023-05-14T12:51:24;40.50;;;38.38;;
71383;SDS011;67558;52.166;5.004;2023-05-14T12:53:49;37.30;;;35.80;;
71383;SDS011;67558;52.166;5.004;2023-05-14T12:56:17;40.55;;;38.85;;
71383;SDS011;67558;52.166;5.004;2023-05-14T12:58:44;43.55;;;41.80;;
71383;SDS011;67558;52.166;5.004;2023-05-14T13:01:10;41.15;;;39.55;;
71383;SDS011;67558;52.166;5.004;2023-05-14T13:03:38;41.08;;;39.58;;
71383;SDS011;67558;52.166;5.004;2023-05-14T13:06:03;46.13;;;44.50;;
71383;SDS011;67558;52.166;5.004;2023-05-14T13:08:28;41.95;;;40.33;;
71383;SDS011;67558;52.166;5.004;2023-05-14T13:10:54;43.03;;;41.42;;
71383;SDS011;67558;52.166;5.004;2023-05-14T13:13:21;44.92;;;43.30;;
71383;SDS011;67558;52.166;5.004;2023-05-14T13:15:47;51.05;;;49.33;;
71383;SDS011;67558;52.166;5.004;2023-05-14T13:18:13;48.67;;;46.88;;
71383;SDS011;67558;52.166;5.004;2023-05-14T13:20:39;47.80;;;46.20;;
71383;SDS011;67558;52.166;5.004;2023-05-14T13:23:04;39.33;;;37.72;;
71383;SDS011;67558;52.166;5.004;2023-05-14T13:25:30;49.88;;;47.90;;
71383;SDS011;67558;52.166;5.004;2023-05-14T13:27:55;40.45;;;38.85;;
71383;SDS011;67558;52.166;5.004;2023-05-14T13:30:20;42.75;;;40.78;;
71383;SDS011;67558;52.166;5.004;2023-05-14T13:32:46;44.38;;;42.90;;
71383;SDS011;67558;52.166;5.004;2023-05-14T13:35:12;43.58;;;42.10;;
71383;SDS011;67558;52.166;5.004;2023-05-14T13:37:37;46.25;;;44.30;;
71383;SDS011;67558;52.166;5.004;2023-05-14T13:40:03;42.80;;;41.20;;
71383;SDS011;67558;52.166;5.004;2023-05-14T13:42:33;45.13;;;43.35;;
71383;SDS011;67558;52.166;5.004;2023-05-14T13:44:58;41.08;;;39.63;;
71383;SDS011;67558;52.166;5.004;2023-05-14T13:47:24;46.17;;;44.50;;
71383;SDS011;67558;52.166;5.004;2023-05-14T13:49:51;51.80;;;50.08;;
71383;SDS011;67558;52.166;5.004;2023-05-14T13:52:17;45.72;;;44.00;;
71383;SDS011;67558;52.166;5.004;2023-05-14T13:54:43;48.85;;;46.90;;
71383;SDS011;67558;52.166;5.004;2023-05-14T13:57:09;41.70;;;39.90;;
71383;SDS011;67558;52.166;5.004;2023-05-14T13:59:35;44.10;;;42.60;;
71383;SDS011;67558;52.166;5.004;2023-05-14T14:02:01;49.75;;;48.08;;
71383;SDS011;67558;52.166;5.004;2023-05-14T14:04:27;46.67;;;45.08;;
71383;SDS011;67558;52.166;5.004;2023-05-14T14:06:54;46.42;;;44.88;;
71383;SDS011;67558;52.166;5.004;2023-05-14T14:09:19;48.60;;;47.05;;
71383;SDS011;67558;52.166;5.004;2023-05-14T14:11:45;46.80;;;45.00;;
71383;SDS011;67558;52.166;5.004;2023-05-14T14:14:11;47.60;;;45.97;;
71383;SDS011;67558;52.166;5.004;2023-05-14T14:16:36;44.33;;;42.83;;
71383;SDS011;67558;52.166;5.004;2023-05-14T14:19:01;46.03;;;44.40;;
71383;SDS011;67558;52.166;5.004;2023-05-14T14:21:27;45.78;;;44.22;;
71383;SDS011;67558;52.166;5.004;2023-05-14T14:23:52;42.47;;;40.80;;
71383;SDS011;67558;52.166;5.004;2023-05-14T14:26:18;46.17;;;44.70;;
71383;SDS011;67558;52.166;5.004;2023-05-14T14:28:43;42.70;;;41.13;;
71383;SDS011;67558;52.166;5.004;2023-05-14T14:31:09;45.70;;;44.10;;